sensor_id;sensor_type;location;lat;lon;timestamp;pressure;altitude;pressure_sealevel;temperature;humidity
59419;BME280;45224;50.904;6.038;2023-05-14T00:00:31;100089.75;;;14.13;79.35
59419;BME280;45224;50.904;6.038;2023-05-14T00:02:02;100089.78;;;14.10;79.43
59419;BME280;45224;50.904;6.038;2023-05-14T00:03:32;100088.13;;;14.02;79.60
59419;BME280;45224;50.904;6.038;2023-05-14T00:05:03;100077.75;;;13.99;79.61
59419;BME280;45224;50.904;6.038;2023-05-14T00:06:34;100085.59;;;13.95;80.02
59419;BME280;45224;50.904;6.038;2023-05-14T00:08:05;100080.44;;;13.90;80.47
59419;BME280;45224;50.904;6.038;2023-05-14T00:09:35;100079.63;;;13.85;80.56
59419;BME280;45224;50.904;6.038;2023-05-14T00:11:06;100084.81;;;13.85;80.71
59419;BME280;45224;50.904;6.038;2023-05-14T00:12:38;100080.53;;;13.81;80.84
59419;BME280;45224;50.904;6.038;2023-05-14T00:14:08;100078.81;;;13.80;80.79
59419;BME280;45224;50.904;6.038;2023-05-14T00:15:39;100076.22;;;13.78;81.22
59419;BME280;45224;50.904;6.038;2023-05-14T00:17:09;100081.44;;;13.77;80.92
59419;BME280;45224;50.904;6.038;2023-05-14T00:18:40;100081.44;;;13.74;81.54
59419;BME280;45224;50.904;6.038;2023-05-14T00:20:10;100076.28;;;13.70;81.76
59419;BME280;45224;50.904;6.038;2023-05-14T00:21:41;100078.03;;;13.68;82.10
59419;BME280;45224;50.904;6.038;2023-05-14T00:23:11;100076.31;;;13.64;82.44
59419;BME280;45224;50.904;6.038;2023-05-14T00:24:42;100077.22;;;13.62;82.71
59419;BME280;45224;50.904;6.038;2023-05-14T00:26:12;100073.78;;;13.60;82.61
59419;BME280;45224;50.904;6.038;2023-05-14T00:27:44;100079.84;;;13.57;82.66
59419;BME280;45224;50.904;6.038;2023-05-14T00:29:14;100071.22;;;13.57;82.70
59419;BME280;45224;50.904;6.038;2023-05-14T00:30:45;100079.00;;;13.55;82.86
59419;BME280;45224;50.904;6.038;2023-05-14T00:32:15;100067.75;;;13.55;82.84
59419;BME280;45224;50.904;6.038;2023-05-14T00:33:46;100068.63;;;13.54;82.99
59419;BME280;45224;50.904;6.038;2023-05-14T00:35:16;100068.63;;;13.52;82.77
59419;BME280;45224;50.904;6.038;2023-05-14T00:36:47;100060.00;;;13.50;82.58
59419;BME280;45224;50.904;6.038;2023-05-14T00:38:17;100070.34;;;13.51;82.45
59419;BME280;45224;50.904;6.038;2023-05-14T00:39:48;100076.44;;;13.49;82.61
59419;BME280;45224;50.904;6.038;2023-05-14T00:41:19;100068.66;;;13.49;82.87
59419;BME280;45224;50.904;6.038;2023-05-14T00:42:50;100069.53;;;13.45;82.92
59419;BME280;45224;50.904;6.038;2023-05-14T00:44:20;100066.97;;;13.40;82.71
59419;BME280;45224;50.904;6.038;2023-05-14T00:45:53;100062.69;;;13.39;83.12
59419;BME280;45224;50.904;6.038;2023-05-14T00:47:23;100062.69;;;13.38;82.96
59419;BME280;45224;50.904;6.038;2023-05-14T00:48:54;100064.44;;;13.36;83.00
59419;BME280;45224;50.904;6.038;2023-05-14T00:50:25;100067.03;;;13.36;83.16
59419;BME280;45224;50.904;6.038;2023-05-14T00:51:56;100060.09;;;13.30;83.66
59419;BME280;45224;50.904;6.038;2023-05-14T00:53:28;100060.13;;;13.27;83.40
59419;BME280;45224;50.904;6.038;2023-05-14T00:54:59;100059.25;;;13.26;83.42
59419;BME280;45224;50.904;6.038;2023-05-14T00:56:33;100058.44;;;13.21;83.37
59419;BME280;45224;50.904;6.038;2023-05-14T00:58:08;100054.97;;;13.21;83.69
59419;BME280;45224;50.904;6.038;2023-05-14T00:59:39;100044.66;;;13.13;83.68
59419;BME280;45224;50.904;6.038;2023-05-14T01:01:11;100049.84;;;13.14;83.72
59419;BME280;45224;50.904;6.038;2023-05-14T01:02:44;100052.38;;;13.18;84.04
59419;BME280;45224;50.904;6.038;2023-05-14T01:04:14;100044.66;;;13.14;83.96
59419;BME280;45224;50.904;6.038;2023-05-14T01:06:00;100044.66;;;13.14;83.97
59419;BME280;45224;50.904;6.038;2023-05-14T01:07:48;100042.91;;;13.13;83.99
59419;BME280;45224;50.904;6.038;2023-05-14T01:09:46;100056.75;;;13.14;83.98
59419;BME280;45224;50.904;6.038;2023-05-14T01:11:25;100052.44;;;13.10;83.75
59419;BME280;45224;50.904;6.038;2023-05-14T01:13:09;100044.69;;;13.08;83.57
59419;BME280;45224;50.904;6.038;2023-05-14T01:16:25;100043.88;;;12.99;84.09
59419;BME280;45224;50.904;6.038;2023-05-14T01:18:04;100032.63;;;12.95;84.09
59419;BME280;45224;50.904;6.038;2023-05-14T01:19:40;100041.28;;;12.97;83.81
59419;BME280;45224;50.904;6.038;2023-05-14T01:21:32;100036.97;;;12.94;83.86
59419;BME280;45224;50.904;6.038;2023-05-14T01:23:04;100036.97;;;12.94;84.11
59419;BME280;45224;50.904;6.038;2023-05-14T01:24:35;100044.75;;;12.94;83.58
59419;BME280;45224;50.904;6.038;2023-05-14T01:26:06;100043.03;;;12.92;83.85
59419;BME280;45224;50.904;6.038;2023-05-14T01:29:21;100050.88;;;12.81;84.82
59419;BME280;45224;50.904;6.038;2023-05-14T01:30:56;100054.34;;;12.80;84.91
59419;BME280;45224;50.904;6.038;2023-05-14T01:32:29;100062.13;;;12.77;84.50
59419;BME280;45224;50.904;6.038;2023-05-14T01:34:01;100054.41;;;12.68;84.46
59419;BME280;45224;50.904;6.038;2023-05-14T01:35:33;100050.94;;;12.67;84.63
59419;BME280;45224;50.904;6.038;2023-05-14T01:37:05;100057.84;;;12.67;84.91
59419;BME280;45224;50.904;6.038;2023-05-14T01:38:37;100060.47;;;12.65;85.08
59419;BME280;45224;50.904;6.038;2023-05-14T01:40:10;100057.03;;;12.63;85.44
59419;BME280;45224;50.904;6.038;2023-05-14T01:41:41;100055.28;;;12.62;85.67
59419;BME280;45224;50.904;6.038;2023-05-14T01:43:12;100052.69;;;12.60;86.04
59419;BME280;45224;50.904;6.038;2023-05-14T01:44:44;100047.50;;;12.57;85.49
59419;BME280;45224;50.904;6.038;2023-05-14T01:46:17;100047.50;;;12.64;85.01
59419;BME280;45224;50.904;6.038;2023-05-14T01:47:49;100051.81;;;12.65;84.65
59419;BME280;45224;50.904;6.038;2023-05-14T01:49:20;100044.91;;;12.62;84.47
59419;BME280;45224;50.904;6.038;2023-05-14T01:50:50;100050.06;;;12.70;84.58
59419;BME280;45224;50.904;6.038;2023-05-14T01:52:21;100052.66;;;12.70;84.73
59419;BME280;45224;50.904;6.038;2023-05-14T01:53:52;100047.47;;;12.70;84.43
59419;BME280;45224;50.904;6.038;2023-05-14T01:55:23;100047.47;;;12.70;84.83
59419;BME280;45224;50.904;6.038;2023-05-14T01:56:53;100049.22;;;12.68;85.16
59419;BME280;45224;50.904;6.038;2023-05-14T01:58:24;100048.34;;;12.67;85.14
59419;BME280;45224;50.904;6.038;2023-05-14T01:59:55;100038.84;;;12.65;85.19
59419;BME280;45224;50.904;6.038;2023-05-14T02:01:25;100037.97;;;12.67;84.95
59419;BME280;45224;50.904;6.038;2023-05-14T02:02:56;100033.66;;;12.66;84.91
59419;BME280;45224;50.904;6.038;2023-05-14T02:04:27;100037.97;;;12.67;84.69
59419;BME280;45224;50.904;6.038;2023-05-14T02:05:57;100033.66;;;12.65;85.16
59419;BME280;45224;50.904;6.038;2023-05-14T02:07:27;100040.56;;;12.66;84.82
59419;BME280;45224;50.904;6.038;2023-05-14T02:08:58;100026.75;;;12.65;84.54
59419;BME280;45224;50.904;6.038;2023-05-14T02:10:29;100028.47;;;12.65;84.47
59419;BME280;45224;50.904;6.038;2023-05-14T02:11:59;100031.91;;;12.67;84.46
59419;BME280;45224;50.904;6.038;2023-05-14T02:13:30;100025.91;;;12.63;84.71
59419;BME280;45224;50.904;6.038;2023-05-14T02:15:04;100031.09;;;12.62;84.65
59419;BME280;45224;50.904;6.038;2023-05-14T02:16:36;100030.25;;;12.56;84.62
59419;BME280;45224;50.904;6.038;2023-05-14T02:18:06;100026.78;;;12.56;84.83
59419;BME280;45224;50.904;6.038;2023-05-14T02:19:36;100030.28;;;12.50;84.95
59419;BME280;45224;50.904;6.038;2023-05-14T02:21:07;100031.13;;;12.51;84.91
59419;BME280;45224;50.904;6.038;2023-05-14T02:22:37;100030.28;;;12.50;84.86
59419;BME280;45224;50.904;6.038;2023-05-14T02:24:11;100021.59;;;12.48;84.95
59419;BME280;45224;50.904;6.038;2023-05-14T02:25:43;100022.50;;;12.46;85.12
59419;BME280;45224;50.904;6.038;2023-05-14T02:27:13;100013.88;;;12.45;84.92
59419;BME280;45224;50.904;6.038;2023-05-14T02:28:43;100025.94;;;12.51;85.03
59419;BME280;45224;50.904;6.038;2023-05-14T02:30:16;100023.31;;;12.55;84.71
59419;BME280;45224;50.904;6.038;2023-05-14T02:31:47;100020.72;;;12.57;84.65
59419;BME280;45224;50.904;6.038;2023-05-14T02:33:18;100018.97;;;12.59;84.35
59419;BME280;45224;50.904;6.038;2023-05-14T02:34:49;100018.13;;;12.62;84.28
59419;BME280;45224;50.904;6.038;2023-05-14T02:36:19;100021.56;;;12.62;84.21
59419;BME280;45224;50.904;6.038;2023-05-14T02:37:50;100019.81;;;12.63;84.33
59419;BME280;45224;50.904;6.038;2023-05-14T02:39:20;100020.69;;;12.68;83.97
59419;BME280;45224;50.904;6.038;2023-05-14T02:40:51;100013.75;;;12.70;83.74
59419;BME280;45224;50.904;6.038;2023-05-14T02:42:21;100012.00;;;12.72;83.64
59419;BME280;45224;50.904;6.038;2023-05-14T02:43:52;100016.31;;;12.76;83.68
59419;BME280;45224;50.904;6.038;2023-05-14T02:45:24;100022.34;;;12.79;83.06
59419;BME280;45224;50.904;6.038;2023-05-14T02:46:54;100011.13;;;12.79;83.03
59419;BME280;45224;50.904;6.038;2023-05-14T02:48:25;100013.66;;;12.84;82.70
59419;BME280;45224;50.904;6.038;2023-05-14T02:49:55;100007.63;;;12.83;82.49
59419;BME280;45224;50.904;6.038;2023-05-14T02:51:26;100015.38;;;12.86;82.22
59419;BME280;45224;50.904;6.038;2023-05-14T02:52:57;100021.44;;;12.85;81.99
59419;BME280;45224;50.904;6.038;2023-05-14T02:54:27;100025.75;;;12.88;82.42
59419;BME280;45224;50.904;6.038;2023-05-14T02:55:58;100028.34;;;12.88;82.41
59419;BME280;45224;50.904;6.038;2023-05-14T02:57:28;100021.44;;;12.85;82.17
59419;BME280;45224;50.904;6.038;2023-05-14T02:58:59;100024.91;;;12.84;81.91
59419;BME280;45224;50.904;6.038;2023-05-14T03:00:30;100024.03;;;12.82;81.96
59419;BME280;45224;50.904;6.038;2023-05-14T03:02:00;100028.38;;;12.83;81.82
59419;BME280;45224;50.904;6.038;2023-05-14T03:03:31;100024.09;;;12.79;81.97
59419;BME280;45224;50.904;6.038;2023-05-14T03:05:01;100033.59;;;12.77;82.32
59419;BME280;45224;50.904;6.038;2023-05-14T03:06:32;100030.16;;;12.75;82.45
59419;BME280;45224;50.904;6.038;2023-05-14T03:08:03;100025.00;;;12.63;83.27
59419;BME280;45224;50.904;6.038;2023-05-14T03:09:33;100027.59;;;12.61;82.78
59419;BME280;45224;50.904;6.038;2023-05-14T03:11:04;100023.31;;;12.57;82.87
59419;BME280;45224;50.904;6.038;2023-05-14T03:12:34;100026.78;;;12.51;82.88
59419;BME280;45224;50.904;6.038;2023-05-14T03:14:05;100013.88;;;12.42;82.98
59419;BME280;45224;50.904;6.038;2023-05-14T03:15:35;100020.78;;;12.40;83.24
59419;BME280;45224;50.904;6.038;2023-05-14T03:17:06;100019.94;;;12.35;83.60
59419;BME280;45224;50.904;6.038;2023-05-14T03:18:36;100012.19;;;12.27;84.39
59419;BME280;45224;50.904;6.038;2023-05-14T03:20:07;100008.75;;;12.20;84.41
59419;BME280;45224;50.904;6.038;2023-05-14T03:21:39;100012.25;;;12.16;84.18
59419;BME280;45224;50.904;6.038;2023-05-14T03:23:10;100013.09;;;12.12;84.59
59419;BME280;45224;50.904;6.038;2023-05-14T03:24:40;100007.06;;;12.07;84.86
59419;BME280;45224;50.904;6.038;2023-05-14T03:26:11;100014.00;;;12.03;84.85
59419;BME280;45224;50.904;6.038;2023-05-14T03:27:42;100015.75;;;11.92;85.92
59419;BME280;45224;50.904;6.038;2023-05-14T03:29:12;100013.13;;;11.91;85.84
59419;BME280;45224;50.904;6.038;2023-05-14T03:30:43;100007.09;;;11.90;85.80
59419;BME280;45224;50.904;6.038;2023-05-14T03:32:14;100001.91;;;11.87;85.79
59419;BME280;45224;50.904;6.038;2023-05-14T03:33:45;100008.81;;;11.88;85.80
59419;BME280;45224;50.904;6.038;2023-05-14T03:35:15;100001.03;;;11.86;85.81
59419;BME280;45224;50.904;6.038;2023-05-14T03:36:46;100004.50;;;11.88;85.81
59419;BME280;45224;50.904;6.038;2023-05-14T03:38:16;100006.22;;;11.90;86.17
59419;BME280;45224;50.904;6.038;2023-05-14T03:39:50;100002.78;;;11.87;86.80
59419;BME280;45224;50.904;6.038;2023-05-14T03:41:21;100009.69;;;11.92;86.05
59419;BME280;45224;50.904;6.038;2023-05-14T03:42:52;100011.41;;;11.90;87.24
59419;BME280;45224;50.904;6.038;2023-05-14T03:44:23;100008.81;;;11.90;86.41
59419;BME280;45224;50.904;6.038;2023-05-14T03:45:54;100014.88;;;11.92;86.08
59419;BME280;45224;50.904;6.038;2023-05-14T03:47:24;100009.69;;;11.92;86.66
59419;BME280;45224;50.904;6.038;2023-05-14T03:48:55;100007.94;;;11.91;86.66
59419;BME280;45224;50.904;6.038;2023-05-14T03:50:25;100009.69;;;11.85;87.11
59419;BME280;45224;50.904;6.038;2023-05-14T03:51:56;100008.81;;;11.80;87.80
59419;BME280;45224;50.904;6.038;2023-05-14T03:53:28;100001.06;;;11.77;87.55
59419;BME280;45224;50.904;6.038;2023-05-14T03:54:59;100004.50;;;11.76;88.21
59419;BME280;45224;50.904;6.038;2023-05-14T03:56:29;99999.34;;;11.73;88.57
59419;BME280;45224;50.904;6.038;2023-05-14T03:58:00;99992.41;;;11.69;88.61
59419;BME280;45224;50.904;6.038;2023-05-14T03:59:31;99987.28;;;11.63;89.21
59419;BME280;45224;50.904;6.038;2023-05-14T04:01:01;99991.56;;;11.64;89.59
59419;BME280;45224;50.904;6.038;2023-05-14T04:02:32;99995.03;;;11.61;89.96
59419;BME280;45224;50.904;6.038;2023-05-14T04:04:02;99980.38;;;11.57;89.96
59419;BME280;45224;50.904;6.038;2023-05-14T04:05:34;99983.81;;;11.64;89.49
59419;BME280;45224;50.904;6.038;2023-05-14T04:07:05;99988.97;;;11.67;89.76
59419;BME280;45224;50.904;6.038;2023-05-14T04:08:35;99992.47;;;11.66;90.20
59419;BME280;45224;50.904;6.038;2023-05-14T04:10:06;99981.22;;;11.64;89.92
59419;BME280;45224;50.904;6.038;2023-05-14T04:11:39;99995.91;;;11.71;89.83
59419;BME280;45224;50.904;6.038;2023-05-14T04:13:10;99979.50;;;11.66;90.03
59419;BME280;45224;50.904;6.038;2023-05-14T04:14:43;99979.47;;;11.70;90.26
59419;BME280;45224;50.904;6.038;2023-05-14T04:16:13;99983.78;;;11.73;89.90
59419;BME280;45224;50.904;6.038;2023-05-14T04:17:44;99986.38;;;11.73;89.93
59419;BME280;45224;50.904;6.038;2023-05-14T04:19:16;99980.34;;;11.77;89.79
59419;BME280;45224;50.904;6.038;2023-05-14T04:20:46;99984.66;;;11.77;90.08
59419;BME280;45224;50.904;6.038;2023-05-14T04:22:17;99984.66;;;11.77;90.20
59419;BME280;45224;50.904;6.038;2023-05-14T04:23:47;99987.22;;;11.78;89.69
59419;BME280;45224;50.904;6.038;2023-05-14T04:25:18;99983.78;;;11.85;89.25
59419;BME280;45224;50.904;6.038;2023-05-14T04:26:49;99983.78;;;11.84;89.06
59419;BME280;45224;50.904;6.038;2023-05-14T04:28:19;99993.25;;;11.88;88.26
59419;BME280;45224;50.904;6.038;2023-05-14T04:29:50;99989.81;;;11.83;89.89
59419;BME280;45224;50.904;6.038;2023-05-14T04:31:21;99982.91;;;11.82;89.93
59419;BME280;45224;50.904;6.038;2023-05-14T04:32:51;99986.38;;;11.87;89.61
59419;BME280;45224;50.904;6.038;2023-05-14T04:34:21;99991.56;;;11.87;89.58
59419;BME280;45224;50.904;6.038;2023-05-14T04:35:52;99982.03;;;11.87;89.34
59419;BME280;45224;50.904;6.038;2023-05-14T04:37:22;99996.72;;;11.95;88.73
59419;BME280;45224;50.904;6.038;2023-05-14T04:38:53;99989.84;;;11.95;89.22
59419;BME280;45224;50.904;6.038;2023-05-14T04:40:23;99996.72;;;11.96;89.21
59419;BME280;45224;50.904;6.038;2023-05-14T04:41:54;99995.00;;;12.00;88.94
59419;BME280;45224;50.904;6.038;2023-05-14T04:43:24;99988.94;;;11.98;89.42
59419;BME280;45224;50.904;6.038;2023-05-14T04:44:55;99997.59;;;12.01;88.90
59419;BME280;45224;50.904;6.038;2023-05-14T04:46:25;99995.00;;;12.00;89.32
59419;BME280;45224;50.904;6.038;2023-05-14T04:47:56;99994.97;;;12.04;88.64
59419;BME280;45224;50.904;6.038;2023-05-14T04:49:26;99999.28;;;12.07;88.66
59419;BME280;45224;50.904;6.038;2023-05-14T04:50:57;99993.25;;;12.11;88.60
59419;BME280;45224;50.904;6.038;2023-05-14T04:52:27;99990.66;;;12.08;89.13
59419;BME280;45224;50.904;6.038;2023-05-14T04:53:58;99998.44;;;12.11;89.32
59419;BME280;45224;50.904;6.038;2023-05-14T04:55:28;99995.84;;;12.10;89.79
59419;BME280;45224;50.904;6.038;2023-05-14T04:56:59;99990.66;;;12.08;90.36
59419;BME280;45224;50.904;6.038;2023-05-14T04:58:32;99985.50;;;12.07;89.98
59419;BME280;45224;50.904;6.038;2023-05-14T05:00:03;99992.38;;;12.09;90.47
59419;BME280;45224;50.904;6.038;2023-05-14T05:01:37;99987.19;;;12.06;91.00
59419;BME280;45224;50.904;6.038;2023-05-14T05:03:08;99991.53;;;12.09;91.11
59419;BME280;45224;50.904;6.038;2023-05-14T05:04:38;99991.50;;;12.12;91.21
59419;BME280;45224;50.904;6.038;2023-05-14T05:06:09;99994.09;;;12.12;91.27
59419;BME280;45224;50.904;6.038;2023-05-14T05:07:39;99994.09;;;12.10;92.00
59419;BME280;45224;50.904;6.038;2023-05-14T05:09:09;99985.44;;;12.14;91.18
59419;BME280;45224;50.904;6.038;2023-05-14T05:10:40;99991.50;;;12.16;92.00
59419;BME280;45224;50.904;6.038;2023-05-14T05:12:10;99996.69;;;12.12;93.49
59419;BME280;45224;50.904;6.038;2023-05-14T05:13:41;100000.13;;;12.14;92.79
59419;BME280;45224;50.904;6.038;2023-05-14T05:15:11;99994.09;;;12.16;93.10
59419;BME280;45224;50.904;6.038;2023-05-14T05:16:42;99997.53;;;12.18;92.77
59419;BME280;45224;50.904;6.038;2023-05-14T05:18:13;99987.16;;;12.21;92.58
59419;BME280;45224;50.904;6.038;2023-05-14T05:19:43;99996.63;;;12.27;91.79
59419;BME280;45224;50.904;6.038;2023-05-14T05:21:14;100002.69;;;12.31;91.96
59419;BME280;45224;50.904;6.038;2023-05-14T05:22:44;100001.81;;;12.32;92.16
59419;BME280;45224;50.904;6.038;2023-05-14T05:24:14;99995.75;;;12.36;91.99
59419;BME280;45224;50.904;6.038;2023-05-14T05:25:45;100000.94;;;12.39;92.09
59419;BME280;45224;50.904;6.038;2023-05-14T05:27:15;100000.03;;;12.41;92.42
59419;BME280;45224;50.904;6.038;2023-05-14T05:28:46;100004.34;;;12.44;93.32
59419;BME280;45224;50.904;6.038;2023-05-14T05:30:17;100002.59;;;12.49;93.35
59419;BME280;45224;50.904;6.038;2023-05-14T05:31:48;100002.56;;;12.55;92.78
59419;BME280;45224;50.904;6.038;2023-05-14T05:33:18;100005.16;;;12.63;92.21
59419;BME280;45224;50.904;6.038;2023-05-14T05:34:49;99999.94;;;12.68;91.89
59419;BME280;45224;50.904;6.038;2023-05-14T05:36:21;100006.81;;;12.72;91.95
59419;BME280;45224;50.904;6.038;2023-05-14T05:37:51;100003.34;;;12.76;92.12
59419;BME280;45224;50.904;6.038;2023-05-14T05:39:22;100011.97;;;12.81;92.45
59419;BME280;45224;50.904;6.038;2023-05-14T05:40:52;100014.50;;;12.90;92.08
59419;BME280;45224;50.904;6.038;2023-05-14T05:42:23;100016.19;;;12.97;91.60
59419;BME280;45224;50.904;6.038;2023-05-14T05:43:53;100013.56;;;12.99;91.75
59419;BME280;45224;50.904;6.038;2023-05-14T05:45:24;100017.00;;;13.04;92.23
59419;BME280;45224;50.904;6.038;2023-05-14T05:46:54;100010.03;;;13.08;92.29
59419;BME280;45224;50.904;6.038;2023-05-14T05:48:28;100010.91;;;13.11;91.95
59419;BME280;45224;50.904;6.038;2023-05-14T05:49:58;100008.31;;;13.14;91.84
59419;BME280;45224;50.904;6.038;2023-05-14T05:51:29;100014.28;;;13.26;91.51
59419;BME280;45224;50.904;6.038;2023-05-14T05:52:59;100012.53;;;13.32;91.23
59419;BME280;45224;50.904;6.038;2023-05-14T05:54:30;100015.94;;;13.38;90.99
59419;BME280;45224;50.904;6.038;2023-05-14T05:56:03;100014.13;;;13.49;91.31
59419;BME280;45224;50.904;6.038;2023-05-14T05:57:34;100008.91;;;13.52;91.30
59419;BME280;45224;50.904;6.038;2023-05-14T05:59:04;100014.03;;;13.58;91.10
59419;BME280;45224;50.904;6.038;2023-05-14T06:00:35;100007.91;;;13.64;90.27
59419;BME280;45224;50.904;6.038;2023-05-14T06:02:06;99998.44;;;13.61;90.87
59419;BME280;45224;50.904;6.038;2023-05-14T06:03:36;100013.88;;;13.74;90.86
59419;BME280;45224;50.904;6.038;2023-05-14T06:05:07;100010.41;;;13.76;90.58
59419;BME280;45224;50.904;6.038;2023-05-14T06:06:38;100030.38;;;13.73;90.24
59419;BME280;45224;50.904;6.038;2023-05-14T06:08:09;100022.50;;;13.79;90.12
59419;BME280;45224;50.904;6.038;2023-05-14T06:09:39;100020.75;;;13.84;89.83
59419;BME280;45224;50.904;6.038;2023-05-14T06:11:09;100026.75;;;13.89;90.13
59419;BME280;45224;50.904;6.038;2023-05-14T06:12:40;100021.72;;;13.70;89.47
59419;BME280;45224;50.904;6.038;2023-05-14T06:14:10;100027.84;;;13.63;89.66
59419;BME280;45224;50.904;6.038;2023-05-14T06:15:41;100025.13;;;13.74;89.42
59419;BME280;45224;50.904;6.038;2023-05-14T06:17:11;100026.03;;;13.75;89.45
59419;BME280;45224;50.904;6.038;2023-05-14T06:18:42;100032.13;;;13.67;89.79
59419;BME280;45224;50.904;6.038;2023-05-14T06:20:12;100027.91;;;13.57;89.90
59419;BME280;45224;50.904;6.038;2023-05-14T06:21:43;100022.81;;;13.42;91.20
59419;BME280;45224;50.904;6.038;2023-05-14T06:23:13;100027.16;;;13.43;91.13
59419;BME280;45224;50.904;6.038;2023-05-14T06:24:44;100015.91;;;13.41;91.20
59419;BME280;45224;50.904;6.038;2023-05-14T06:26:14;100022.81;;;13.42;91.59
59419;BME280;45224;50.904;6.038;2023-05-14T06:27:45;100028.88;;;13.47;91.42
59419;BME280;45224;50.904;6.038;2023-05-14T06:29:15;100031.47;;;13.44;91.53
59419;BME280;45224;50.904;6.038;2023-05-14T06:30:48;100026.28;;;13.42;91.96
59419;BME280;45224;50.904;6.038;2023-05-14T06:32:19;100035.06;;;13.21;93.00
59419;BME280;45224;50.904;6.038;2023-05-14T06:33:49;100028.97;;;13.27;92.68
59419;BME280;45224;50.904;6.038;2023-05-14T06:35:20;100035.06;;;13.21;93.41
59419;BME280;45224;50.904;6.038;2023-05-14T06:36:50;100026.38;;;13.24;93.36
59419;BME280;45224;50.904;6.038;2023-05-14T06:38:21;100033.41;;;13.11;94.11
59419;BME280;45224;50.904;6.038;2023-05-14T06:39:51;100033.38;;;13.15;94.24
59419;BME280;45224;50.904;6.038;2023-05-14T06:41:22;100035.09;;;13.17;94.00
59419;BME280;45224;50.904;6.038;2023-05-14T06:42:52;100042.91;;;13.10;94.70
59419;BME280;45224;50.904;6.038;2023-05-14T06:44:23;100033.41;;;13.08;95.10
59419;BME280;45224;50.904;6.038;2023-05-14T06:45:54;100035.16;;;13.09;95.07
59419;BME280;45224;50.904;6.038;2023-05-14T06:47:24;100036.88;;;13.13;95.29
59419;BME280;45224;50.904;6.038;2023-05-14T06:48:55;100042.88;;;13.18;94.84
59419;BME280;45224;50.904;6.038;2023-05-14T06:50:25;100041.13;;;13.19;96.13
59419;BME280;45224;50.904;6.038;2023-05-14T06:51:56;100035.09;;;13.15;95.45
59419;BME280;45224;50.904;6.038;2023-05-14T06:53:26;100042.91;;;13.12;95.69
59419;BME280;45224;50.904;6.038;2023-05-14T06:54:57;100037.69;;;13.20;95.02
59419;BME280;45224;50.904;6.038;2023-05-14T06:56:27;100035.94;;;13.20;95.57
59419;BME280;45224;50.904;6.038;2023-05-14T06:57:58;100036.75;;;13.25;94.98
59419;BME280;45224;50.904;6.038;2023-05-14T06:59:28;100031.53;;;13.28;95.48
59419;BME280;45224;50.904;6.038;2023-05-14T07:00:59;100028.09;;;13.36;95.08
59419;BME280;45224;50.904;6.038;2023-05-14T07:02:29;100034.13;;;13.35;96.29
59419;BME280;45224;50.904;6.038;2023-05-14T07:04:00;100031.75;;;13.01;97.23
59419;BME280;45224;50.904;6.038;2023-05-14T07:05:30;100038.50;;;13.23;96.36
59419;BME280;45224;50.904;6.038;2023-05-14T07:07:01;100032.47;;;13.23;96.82
59419;BME280;45224;50.904;6.038;2023-05-14T07:08:31;100029.75;;;13.40;95.67
59419;BME280;45224;50.904;6.038;2023-05-14T07:10:02;100030.59;;;13.42;96.41
59419;BME280;45224;50.904;6.038;2023-05-14T07:11:33;100035.75;;;13.46;95.54
59419;BME280;45224;50.904;6.038;2023-05-14T07:13:04;100040.13;;;13.43;96.19
59419;BME280;45224;50.904;6.038;2023-05-14T07:14:34;100032.31;;;13.47;95.98
59419;BME280;45224;50.904;6.038;2023-05-14T07:16:05;100033.09;;;13.57;94.82
59419;BME280;45224;50.904;6.038;2023-05-14T07:17:36;100029.56;;;13.64;95.25
59419;BME280;45224;50.904;6.038;2023-05-14T07:19:07;100031.25;;;13.72;94.85
59419;BME280;45224;50.904;6.038;2023-05-14T07:20:37;100027.72;;;13.76;95.56
59419;BME280;45224;50.904;6.038;2023-05-14T07:22:08;100027.69;;;13.79;94.45
59419;BME280;45224;50.904;6.038;2023-05-14T07:23:39;100026.78;;;13.86;93.53
59419;BME280;45224;50.904;6.038;2023-05-14T07:25:09;100018.03;;;13.93;93.42
59419;BME280;45224;50.904;6.038;2023-05-14T07:26:39;100024.00;;;14.01;94.00
59419;BME280;45224;50.904;6.038;2023-05-14T07:28:10;100027.44;;;14.06;93.36
59419;BME280;45224;50.904;6.038;2023-05-14T07:29:41;100026.53;;;14.11;93.23
59419;BME280;45224;50.904;6.038;2023-05-14T07:31:11;100023.78;;;14.23;92.46
59419;BME280;45224;50.904;6.038;2023-05-14T07:32:42;100021.97;;;14.31;92.14
59419;BME280;45224;50.904;6.038;2023-05-14T07:34:12;100031.38;;;14.40;91.69
59419;BME280;45224;50.904;6.038;2023-05-14T07:35:43;100024.47;;;14.39;90.53
59419;BME280;45224;50.904;6.038;2023-05-14T07:37:13;100024.47;;;14.39;90.40
59419;BME280;45224;50.904;6.038;2023-05-14T07:38:44;100030.44;;;14.49;90.02
59419;BME280;45224;50.904;6.038;2023-05-14T07:40:15;100033.00;;;14.52;89.08
59419;BME280;45224;50.904;6.038;2023-05-14T07:41:45;100033.00;;;14.52;89.16
59419;BME280;45224;50.904;6.038;2023-05-14T07:43:16;100039.00;;;14.60;89.49
59419;BME280;45224;50.904;6.038;2023-05-14T07:44:46;100031.94;;;14.68;89.81
59419;BME280;45224;50.904;6.038;2023-05-14T07:46:17;100037.81;;;14.84;89.94
59419;BME280;45224;50.904;6.038;2023-05-14T07:47:47;100034.28;;;14.88;89.66
59419;BME280;45224;50.904;6.038;2023-05-14T07:49:20;100025.59;;;14.89;88.95
59419;BME280;45224;50.904;6.038;2023-05-14T07:50:51;100034.22;;;14.91;88.68
59419;BME280;45224;50.904;6.038;2023-05-14T07:52:22;100030.53;;;15.06;88.38
59419;BME280;45224;50.904;6.038;2023-05-14T07:53:53;100018.38;;;15.10;88.15
59419;BME280;45224;50.904;6.038;2023-05-14T07:55:24;100025.06;;;15.26;87.95
59419;BME280;45224;50.904;6.038;2023-05-14T07:56:55;100024.81;;;15.40;87.29
59419;BME280;45224;50.904;6.038;2023-05-14T07:58:25;100023.81;;;15.49;86.79
59419;BME280;45224;50.904;6.038;2023-05-14T07:59:57;100032.16;;;15.68;86.19
59419;BME280;45224;50.904;6.038;2023-05-14T08:01:27;100028.59;;;15.75;85.57